sensor_id;sensor_type;location;lat;lon;timestamp;temperature;humidity
44671;DHT22;48397;53.016;-2.260;2022-12-07T00:01:36;1.00;99.90
44671;DHT22;48397;53.016;-2.260;2022-12-07T00:04:08;1.10;99.90
44671;DHT22;48397;53.016;-2.260;2022-12-07T00:06:38;1.00;99.90
44671;DHT22;48397;53.016;-2.260;2022-12-07T00:09:09;0.90;99.90
44671;DHT22;48397;53.016;-2.260;2022-12-07T00:11:37;0.90;99.90
44671;DHT22;48397;53.016;-2.260;2022-12-07T00:14:07;0.70;99.90
44671;DHT22;48397;53.016;-2.260;2022-12-07T00:16:36;0.60;99.90
44671;DHT22;48397;53.016;-2.260;2022-12-07T00:19:04;0.50;99.90
44671;DHT22;48397;53.016;-2.260;2022-12-07T00:21:33;0.30;99.90
44671;DHT22;48397;53.016;-2.260;2022-12-07T00:24:03;0.40;99.90
44671;DHT22;48397;53.016;-2.260;2022-12-07T00:26:34;0.40;99.90
44671;DHT22;48397;53.016;-2.260;2022-12-07T00:29:07;0.50;99.90
44671;DHT22;48397;53.016;-2.260;2022-12-07T00:34:13;0.50;99.90
44671;DHT22;48397;53.016;-2.260;2022-12-07T00:36:41;0.50;99.90
44671;DHT22;48397;53.016;-2.260;2022-12-07T00:39:09;0.60;99.90
44671;DHT22;48397;53.016;-2.260;2022-12-07T00:41:37;0.50;99.90
44671;DHT22;48397;53.016;-2.260;2022-12-07T00:44:06;0.70;99.90
44671;DHT22;48397;53.016;-2.260;2022-12-07T00:46:34;0.70;99.90
44671;DHT22;48397;53.016;-2.260;2022-12-07T00:51:29;0.70;99.90
44671;DHT22;48397;53.016;-2.260;2022-12-07T00:53:57;0.80;99.90
44671;DHT22;48397;53.016;-2.260;2022-12-07T00:56:26;1.30;99.90
44671;DHT22;48397;53.016;-2.260;2022-12-07T00:58:57;0.80;99.90
44671;DHT22;48397;53.016;-2.260;2022-12-07T01:01:26;0.70;99.90
44671;DHT22;48397;53.016;-2.260;2022-12-07T01:03:54;0.70;99.90
44671;DHT22;48397;53.016;-2.260;2022-12-07T01:06:23;0.60;99.90
44671;DHT22;48397;53.016;-2.260;2022-12-07T01:08:52;0.60;99.90
44671;DHT22;48397;53.016;-2.260;2022-12-07T01:11:22;0.60;99.90
44671;DHT22;48397;53.016;-2.260;2022-12-07T01:13:52;0.70;99.90
44671;DHT22;48397;53.016;-2.260;2022-12-07T01:16:21;0.70;99.90
44671;DHT22;48397;53.016;-2.260;2022-12-07T01:18:51;0.70;99.90
44671;DHT22;48397;53.016;-2.260;2022-12-07T01:21:30;0.60;99.90
44671;DHT22;48397;53.016;-2.260;2022-12-07T01:24:03;0.50;99.90
44671;DHT22;48397;53.016;-2.260;2022-12-07T01:28:59;0.40;99.90
44671;DHT22;48397;53.016;-2.260;2022-12-07T01:33:57;0.40;99.90
44671;DHT22;48397;53.016;-2.260;2022-12-07T01:38:58;0.20;99.90
44671;DHT22;48397;53.016;-2.260;2022-12-07T01:41:29;0.20;99.90
44671;DHT22;48397;53.016;-2.260;2022-12-07T01:44:23;0.20;99.90
44671;DHT22;48397;53.016;-2.260;2022-12-07T01:52:20;0.10;99.90
44671;DHT22;48397;53.016;-2.260;2022-12-07T01:54:53;0.10;99.90
44671;DHT22;48397;53.016;-2.260;2022-12-07T01:57:22;0.10;99.90
44671;DHT22;48397;53.016;-2.260;2022-12-07T01:59:51;0.00;99.90
44671;DHT22;48397;53.016;-2.260;2022-12-07T02:02:27;0.00;99.90
44671;DHT22;48397;53.016;-2.260;2022-12-07T02:04:59;-0.10;99.90
44671;DHT22;48397;53.016;-2.260;2022-12-07T02:07:29;-0.10;99.90
44671;DHT22;48397;53.016;-2.260;2022-12-07T02:09:57;-0.10;99.90
44671;DHT22;48397;53.016;-2.260;2022-12-07T02:12:25;-0.10;99.90
44671;DHT22;48397;53.016;-2.260;2022-12-07T02:14:53;-0.10;99.90
44671;DHT22;48397;53.016;-2.260;2022-12-07T02:23:40;-0.20;99.90
44671;DHT22;48397;53.016;-2.260;2022-12-07T02:29:28;-0.30;99.90
44671;DHT22;48397;53.016;-2.260;2022-12-07T02:32:16;-0.30;99.90
44671;DHT22;48397;53.016;-2.260;2022-12-07T02:37:37;-0.40;99.90
44671;DHT22;48397;53.016;-2.260;2022-12-07T02:40:12;-0.40;99.90
44671;DHT22;48397;53.016;-2.260;2022-12-07T02:42:58;-0.40;99.90
44671;DHT22;48397;53.016;-2.260;2022-12-07T02:45:29;-0.50;99.90
44671;DHT22;48397;53.016;-2.260;2022-12-07T02:48:00;-0.50;99.90
44671;DHT22;48397;53.016;-2.260;2022-12-07T02:50:28;-0.50;99.90
44671;DHT22;48397;53.016;-2.260;2022-12-07T02:52:56;-0.50;99.90
44671;DHT22;48397;53.016;-2.260;2022-12-07T02:55:29;-0.50;99.90
44671;DHT22;48397;53.016;-2.260;2022-12-07T02:58:38;-0.60;99.90
44671;DHT22;48397;53.016;-2.260;2022-12-07T03:01:24;-0.70;99.90
44671;DHT22;48397;53.016;-2.260;2022-12-07T03:04:59;-0.70;99.90
44671;DHT22;48397;53.016;-2.260;2022-12-07T03:07:09;-0.70;99.90
44671;DHT22;48397;53.016;-2.260;2022-12-07T03:12:18;-0.90;99.90
44671;DHT22;48397;53.016;-2.260;2022-12-07T03:14:58;-1.00;99.90
44671;DHT22;48397;53.016;-2.260;2022-12-07T03:17:31;-1.10;99.90
44671;DHT22;48397;53.016;-2.260;2022-12-07T03:20:03;-1.00;99.90
44671;DHT22;48397;53.016;-2.260;2022-12-07T03:22:34;-1.00;99.90
44671;DHT22;48397;53.016;-2.260;2022-12-07T03:25:06;-1.00;99.90
44671;DHT22;48397;53.016;-2.260;2022-12-07T03:30:21;-1.00;99.90
44671;DHT22;48397;53.016;-2.260;2022-12-07T03:32:58;-1.00;99.90
44671;DHT22;48397;53.016;-2.260;2022-12-07T03:38:22;2.70;99.90
44671;DHT22;48397;53.016;-2.260;2022-12-07T03:41:00;-1.00;99.90
44671;DHT22;48397;53.016;-2.260;2022-12-07T03:43:30;-0.90;99.90
44671;DHT22;48397;53.016;-2.260;2022-12-07T03:48:38;-0.90;99.90
44671;DHT22;48397;53.016;-2.260;2022-12-07T03:56:48;-0.90;99.90
44671;DHT22;48397;53.016;-2.260;2022-12-07T03:59:17;-0.80;99.90
44671;DHT22;48397;53.016;-2.260;2022-12-07T04:01:52;-0.80;99.90
44671;DHT22;48397;53.016;-2.260;2022-12-07T04:04:23;-0.70;99.90
44671;DHT22;48397;53.016;-2.260;2022-12-07T04:06:52;-0.60;99.90
44671;DHT22;48397;53.016;-2.260;2022-12-07T04:09:20;-0.60;99.90
44671;DHT22;48397;53.016;-2.260;2022-12-07T04:11:47;-0.60;99.90
44671;DHT22;48397;53.016;-2.260;2022-12-07T04:14:15;-0.60;99.90
44671;DHT22;48397;53.016;-2.260;2022-12-07T04:16:51;-0.70;99.90
44671;DHT22;48397;53.016;-2.260;2022-12-07T04:19:21;-0.70;99.90
44671;DHT22;48397;53.016;-2.260;2022-12-07T04:21:50;-1.00;99.90
44671;DHT22;48397;53.016;-2.260;2022-12-07T04:24:18;-0.90;99.90
44671;DHT22;48397;53.016;-2.260;2022-12-07T04:26:46;-0.90;99.90
44671;DHT22;48397;53.016;-2.260;2022-12-07T04:29:14;-0.90;99.90
44671;DHT22;48397;53.016;-2.260;2022-12-07T04:31:43;-0.90;99.90
44671;DHT22;48397;53.016;-2.260;2022-12-07T04:34:12;-0.90;99.90
44671;DHT22;48397;53.016;-2.260;2022-12-07T04:36:40;-0.90;99.90
44671;DHT22;48397;53.016;-2.260;2022-12-07T04:39:23;-0.90;99.90
44671;DHT22;48397;53.016;-2.260;2022-12-07T04:41:51;-1.00;99.90
44671;DHT22;48397;53.016;-2.260;2022-12-07T04:44:20;-1.00;99.90
44671;DHT22;48397;53.016;-2.260;2022-12-07T04:46:48;-1.10;99.90
44671;DHT22;48397;53.016;-2.260;2022-12-07T04:49:16;-1.00;99.90
44671;DHT22;48397;53.016;-2.260;2022-12-07T04:51:45;-1.00;99.90
44671;DHT22;48397;53.016;-2.260;2022-12-07T04:54:14;-1.00;99.90
44671;DHT22;48397;53.016;-2.260;2022-12-07T04:56:43;-1.10;99.90
44671;DHT22;48397;53.016;-2.260;2022-12-07T04:59:12;-1.20;99.90
44671;DHT22;48397;53.016;-2.260;2022-12-07T05:01:40;-1.20;99.90
44671;DHT22;48397;53.016;-2.260;2022-12-07T05:04:10;-1.20;99.90
44671;DHT22;48397;53.016;-2.260;2022-12-07T05:06:38;-1.20;99.90
44671;DHT22;48397;53.016;-2.260;2022-12-07T05:09:05;-1.30;99.90
44671;DHT22;48397;53.016;-2.260;2022-12-07T05:11:33;-1.30;99.90
44671;DHT22;48397;53.016;-2.260;2022-12-07T05:16:40;-1.30;99.90
44671;DHT22;48397;53.016;-2.260;2022-12-07T05:19:09;-1.30;99.90
44671;DHT22;48397;53.016;-2.260;2022-12-07T05:24:06;-1.50;99.90
44671;DHT22;48397;53.016;-2.260;2022-12-07T05:26:34;-1.50;99.90
44671;DHT22;48397;53.016;-2.260;2022-12-07T05:29:03;-1.50;99.90
44671;DHT22;48397;53.016;-2.260;2022-12-07T05:31:31;-1.50;99.90
44671;DHT22;48397;53.016;-2.260;2022-12-07T05:33:59;-1.60;99.90
44671;DHT22;48397;53.016;-2.260;2022-12-07T05:38:56;-1.50;99.90
44671;DHT22;48397;53.016;-2.260;2022-12-07T05:41:23;-1.50;99.90
44671;DHT22;48397;53.016;-2.260;2022-12-07T05:44:10;-1.40;99.90
44671;DHT22;48397;53.016;-2.260;2022-12-07T05:46:38;-1.30;99.90
44671;DHT22;48397;53.016;-2.260;2022-12-07T05:49:06;-1.00;99.90
44671;DHT22;48397;53.016;-2.260;2022-12-07T05:51:33;-0.80;99.90
44671;DHT22;48397;53.016;-2.260;2022-12-07T05:56:30;-0.70;99.90
44671;DHT22;48397;53.016;-2.260;2022-12-07T05:58:57;-0.70;99.90
44671;DHT22;48397;53.016;-2.260;2022-12-07T06:01:43;-0.60;99.90
44671;DHT22;48397;53.016;-2.260;2022-12-07T06:04:11;0.90;99.90
44671;DHT22;48397;53.016;-2.260;2022-12-07T06:09:07;-1.00;99.90
44671;DHT22;48397;53.016;-2.260;2022-12-07T06:11:35;-1.10;99.90
44671;DHT22;48397;53.016;-2.260;2022-12-07T06:14:21;-0.60;99.90
44671;DHT22;48397;53.016;-2.260;2022-12-07T06:16:49;-1.20;99.90
44671;DHT22;48397;53.016;-2.260;2022-12-07T06:19:17;-1.20;99.90
44671;DHT22;48397;53.016;-2.260;2022-12-07T06:21:45;-1.30;99.90
44671;DHT22;48397;53.016;-2.260;2022-12-07T06:24:13;-1.40;99.90
44671;DHT22;48397;53.016;-2.260;2022-12-07T06:26:42;-1.40;99.90
44671;DHT22;48397;53.016;-2.260;2022-12-07T06:29:10;-1.50;99.90
44671;DHT22;48397;53.016;-2.260;2022-12-07T06:31:39;-1.60;99.90
44671;DHT22;48397;53.016;-2.260;2022-12-07T06:34:10;-1.60;99.90
44671;DHT22;48397;53.016;-2.260;2022-12-07T06:36:38;-1.70;99.90
44671;DHT22;48397;53.016;-2.260;2022-12-07T06:39:07;-1.80;99.90
44671;DHT22;48397;53.016;-2.260;2022-12-07T06:41:37;-1.90;99.90
44671;DHT22;48397;53.016;-2.260;2022-12-07T06:44:06;-1.90;99.90
44671;DHT22;48397;53.016;-2.260;2022-12-07T06:46:34;-1.90;99.90
44671;DHT22;48397;53.016;-2.260;2022-12-07T06:49:05;-2.00;99.90
44671;DHT22;48397;53.016;-2.260;2022-12-07T06:51:33;-2.00;99.90
44671;DHT22;48397;53.016;-2.260;2022-12-07T06:54:04;-2.00;99.90
44671;DHT22;48397;53.016;-2.260;2022-12-07T06:56:32;-2.00;99.90
44671;DHT22;48397;53.016;-2.260;2022-12-07T06:59:00;-2.00;99.90
44671;DHT22;48397;53.016;-2.260;2022-12-07T07:03:56;-1.90;99.90
44671;DHT22;48397;53.016;-2.260;2022-12-07T07:06:24;-1.90;99.90
44671;DHT22;48397;53.016;-2.260;2022-12-07T07:08:52;-2.00;99.90
44671;DHT22;48397;53.016;-2.260;2022-12-07T07:11:20;-2.00;99.90
44671;DHT22;48397;53.016;-2.260;2022-12-07T07:13:47;-1.70;99.90
44671;DHT22;48397;53.016;-2.260;2022-12-07T07:16:16;-2.10;99.90
44671;DHT22;48397;53.016;-2.260;2022-12-07T07:18:44;-2.20;99.90
44671;DHT22;48397;53.016;-2.260;2022-12-07T07:21:11;-2.30;99.90
44671;DHT22;48397;53.016;-2.260;2022-12-07T07:23:39;-2.40;99.90
44671;DHT22;48397;53.016;-2.260;2022-12-07T07:28:35;-2.40;99.90
44671;DHT22;48397;53.016;-2.260;2022-12-07T07:31:03;-2.30;99.90
44671;DHT22;48397;53.016;-2.260;2022-12-07T07:33:30;-2.20;99.90
44671;DHT22;48397;53.016;-2.260;2022-12-07T07:35:58;-2.30;99.90
44671;DHT22;48397;53.016;-2.260;2022-12-07T07:38:26;-2.20;99.90
44671;DHT22;48397;53.016;-2.260;2022-12-07T07:40:53;-2.30;99.90
44671;DHT22;48397;53.016;-2.260;2022-12-07T07:43:21;-2.10;99.90
44671;DHT22;48397;53.016;-2.260;2022-12-07T07:45:50;-2.30;99.90
44671;DHT22;48397;53.016;-2.260;2022-12-07T07:48:18;-2.30;99.90
44671;DHT22;48397;53.016;-2.260;2022-12-07T07:50:46;-2.40;99.90
44671;DHT22;48397;53.016;-2.260;2022-12-07T07:53:13;-2.40;99.90
44671;DHT22;48397;53.016;-2.260;2022-12-07T07:58:10;-2.50;99.90
44671;DHT22;48397;53.016;-2.260;2022-12-07T08:03:06;-2.60;99.90
44671;DHT22;48397;53.016;-2.260;2022-12-07T08:05:36;-2.10;99.90
44671;DHT22;48397;53.016;-2.260;2022-12-07T08:08:04;-2.60;99.90
44671;DHT22;48397;53.016;-2.260;2022-12-07T08:10:32;-2.70;99.90
44671;DHT22;48397;53.016;-2.260;2022-12-07T08:12:59;-2.60;99.90
44671;DHT22;48397;53.016;-2.260;2022-12-07T08:15:46;-2.60;99.90
44671;DHT22;48397;53.016;-2.260;2022-12-07T08:18:15;-2.60;99.90
44671;DHT22;48397;53.016;-2.260;2022-12-07T08:20:43;-2.60;99.90
44671;DHT22;48397;53.016;-2.260;2022-12-07T08:23:11;-2.60;99.90
44671;DHT22;48397;53.016;-2.260;2022-12-07T08:25:39;-2.60;99.90
44671;DHT22;48397;53.016;-2.260;2022-12-07T08:28:07;-2.10;99.90
44671;DHT22;48397;53.016;-2.260;2022-12-07T08:30:35;-2.50;99.90
44671;DHT22;48397;53.016;-2.260;2022-12-07T08:33:03;-2.50;99.90
44671;DHT22;48397;53.016;-2.260;2022-12-07T08:35:33;-2.50;99.90
44671;DHT22;48397;53.016;-2.260;2022-12-07T08:38:01;-2.50;99.90
44671;DHT22;48397;53.016;-2.260;2022-12-07T08:40:30;-0.70;99.90
44671;DHT22;48397;53.016;-2.260;2022-12-07T08:42:57;-2.40;99.90
44671;DHT22;48397;53.016;-2.260;2022-12-07T08:45:25;-2.30;99.90
44671;DHT22;48397;53.016;-2.260;2022-12-07T08:48:06;-2.30;99.90
44671;DHT22;48397;53.016;-2.260;2022-12-07T08:50:36;-2.30;99.90
44671;DHT22;48397;53.016;-2.260;2022-12-07T08:53:06;-1.60;99.90
44671;DHT22;48397;53.016;-2.260;2022-12-07T08:55:34;-1.90;99.90
44671;DHT22;48397;53.016;-2.260;2022-12-07T08:58:03;-1.80;99.90
44671;DHT22;48397;53.016;-2.260;2022-12-07T09:00:31;-1.80;99.90
44671;DHT22;48397;53.016;-2.260;2022-12-07T09:02:59;-1.80;99.90
44671;DHT22;48397;53.016;-2.260;2022-12-07T09:05:26;-1.60;99.90
44671;DHT22;48397;53.016;-2.260;2022-12-07T09:07:57;-1.50;99.90
44671;DHT22;48397;53.016;-2.260;2022-12-07T09:10:28;-1.30;99.90
44671;DHT22;48397;53.016;-2.260;2022-12-07T09:12:58;-1.10;99.90
44671;DHT22;48397;53.016;-2.260;2022-12-07T09:15:29;-1.00;99.90
44671;DHT22;48397;53.016;-2.260;2022-12-07T09:17:57;-0.80;99.90
44671;DHT22;48397;53.016;-2.260;2022-12-07T09:20:25;-0.30;99.90
44671;DHT22;48397;53.016;-2.260;2022-12-07T09:22:54;-0.70;99.90
44671;DHT22;48397;53.016;-2.260;2022-12-07T09:25:22;-0.70;99.90
44671;DHT22;48397;53.016;-2.260;2022-12-07T09:27:56;-0.70;99.90
44671;DHT22;48397;53.016;-2.260;2022-12-07T09:30:25;-0.70;99.90
44671;DHT22;48397;53.016;-2.260;2022-12-07T09:32:55;-0.60;99.90
44671;DHT22;48397;53.016;-2.260;2022-12-07T09:35:24;-0.50;99.90
44671;DHT22;48397;53.016;-2.260;2022-12-07T09:37:52;-0.50;99.90
44671;DHT22;48397;53.016;-2.260;2022-12-07T09:40:22;-0.50;99.90
44671;DHT22;48397;53.016;-2.260;2022-12-07T09:42:52;-0.40;99.90
44671;DHT22;48397;53.016;-2.260;2022-12-07T09:45:34;-0.40;99.90
44671;DHT22;48397;53.016;-2.260;2022-12-07T09:48:09;-0.40;99.90
44671;DHT22;48397;53.016;-2.260;2022-12-07T09:50:41;-0.30;99.90
44671;DHT22;48397;53.016;-2.260;2022-12-07T09:53:15;-0.40;99.90
44671;DHT22;48397;53.016;-2.260;2022-12-07T09:55:45;-0.40;99.90
44671;DHT22;48397;53.016;-2.260;2022-12-07T09:58:20;-0.40;99.90
44671;DHT22;48397;53.016;-2.260;2022-12-07T10:01:01;-0.40;99.90
44671;DHT22;48397;53.016;-2.260;2022-12-07T10:03:32;-0.40;99.90
44671;DHT22;48397;53.016;-2.260;2022-12-07T10:06:00;-0.40;99.90
44671;DHT22;48397;53.016;-2.260;2022-12-07T10:08:28;-0.40;99.90
44671;DHT22;48397;53.016;-2.260;2022-12-07T10:10:58;-0.30;99.90
44671;DHT22;48397;53.016;-2.260;2022-12-07T10:13:41;-0.30;99.90
44671;DHT22;48397;53.016;-2.260;2022-12-07T10:18:55;0.10;99.90
44671;DHT22;48397;53.016;-2.260;2022-12-07T10:21:25;0.20;99.90
44671;DHT22;48397;53.016;-2.260;2022-12-07T10:24:05;0.30;99.90
44671;DHT22;48397;53.016;-2.260;2022-12-07T10:26:41;0.40;99.90
44671;DHT22;48397;53.016;-2.260;2022-12-07T10:32:04;0.50;99.90
44671;DHT22;48397;53.016;-2.260;2022-12-07T10:34:37;0.50;99.90
44671;DHT22;48397;53.016;-2.260;2022-12-07T10:39:45;0.60;99.90
44671;DHT22;48397;53.016;-2.260;2022-12-07T10:44:50;0.60;99.90
44671;DHT22;48397;53.016;-2.260;2022-12-07T10:56:25;0.80;99.90
44671;DHT22;48397;53.016;-2.260;2022-12-07T10:59:24;0.90;99.90
44671;DHT22;48397;53.016;-2.260;2022-12-07T11:08:23;1.00;99.90
44671;DHT22;48397;53.016;-2.260;2022-12-07T11:14:44;1.10;99.90
44671;DHT22;48397;53.016;-2.260;2022-12-07T11:17:26;1.10;99.90
44671;DHT22;48397;53.016;-2.260;2022-12-07T11:31:52;1.30;99.90
44671;DHT22;48397;53.016;-2.260;2022-12-07T11:37:19;1.30;99.90
44671;DHT22;48397;53.016;-2.260;2022-12-07T11:40:00;1.30;99.90
44671;DHT22;48397;53.016;-2.260;2022-12-07T11:42:41;1.40;99.90
44671;DHT22;48397;53.016;-2.260;2022-12-07T11:45:26;1.40;99.90
44671;DHT22;48397;53.016;-2.260;2022-12-07T11:50:59;1.50;99.90
44671;DHT22;48397;53.016;-2.260;2022-12-07T11:53:35;1.50;99.90
44671;DHT22;48397;53.016;-2.260;2022-12-07T11:56:14;1.50;99.90
44671;DHT22;48397;53.016;-2.260;2022-12-07T11:58:53;1.60;99.90
44671;DHT22;48397;53.016;-2.260;2022-12-07T12:06:43;1.60;99.90
44671;DHT22;48397;53.016;-2.260;2022-12-07T12:09:18;1.70;99.90
44671;DHT22;48397;53.016;-2.260;2022-12-07T12:15:34;1.80;99.90
44671;DHT22;48397;53.016;-2.260;2022-12-07T12:21:18;1.90;99.90
44671;DHT22;48397;53.016;-2.260;2022-12-07T12:24:00;1.90;99.90
44671;DHT22;48397;53.016;-2.260;2022-12-07T12:26:35;4.20;99.90
44671;DHT22;48397;53.016;-2.260;2022-12-07T12:29:24;2.00;99.90
44671;DHT22;48397;53.016;-2.260;2022-12-07T12:32:21;2.00;99.90
44671;DHT22;48397;53.016;-2.260;2022-12-07T12:37:39;3.80;99.90
44671;DHT22;48397;53.016;-2.260;2022-12-07T12:42:50;3.20;99.90
44671;DHT22;48397;53.016;-2.260;2022-12-07T12:47:59;2.10;99.90
44671;DHT22;48397;53.016;-2.260;2022-12-07T12:50:31;2.10;99.90
44671;DHT22;48397;53.016;-2.260;2022-12-07T12:53:12;2.10;99.90
44671;DHT22;48397;53.016;-2.260;2022-12-07T13:00:47;2.20;99.90
44671;DHT22;48397;53.016;-2.260;2022-12-07T13:03:26;2.30;99.90
44671;DHT22;48397;53.016;-2.260;2022-12-07T13:08:57;2.40;99.90
44671;DHT22;48397;53.016;-2.260;2022-12-07T13:11:45;2.40;99.90
44671;DHT22;48397;53.016;-2.260;2022-12-07T13:17:03;2.40;99.90
44671;DHT22;48397;53.016;-2.260;2022-12-07T13:25:18;2.50;99.90
44671;DHT22;48397;53.016;-2.260;2022-12-07T13:28:02;2.50;99.90
44671;DHT22;48397;53.016;-2.260;2022-12-07T13:30:47;2.50;99.90
44671;DHT22;48397;53.016;-2.260;2022-12-07T13:33:18;3.20;99.90
44671;DHT22;48397;53.016;-2.260;2022-12-07T13:35:46;2.50;99.90
44671;DHT22;48397;53.016;-2.260;2022-12-07T13:38:59;2.60;99.90
44671;DHT22;48397;53.016;-2.260;2022-12-07T13:41:28;2.70;99.90
44671;DHT22;48397;53.016;-2.260;2022-12-07T13:44:01;2.60;99.90
44671;DHT22;48397;53.016;-2.260;2022-12-07T13:46:58;2.60;99.90
44671;DHT22;48397;53.016;-2.260;2022-12-07T13:49:32;2.60;99.90
44671;DHT22;48397;53.016;-2.260;2022-12-07T13:52:24;2.80;99.90
44671;DHT22;48397;53.016;-2.260;2022-12-07T13:55:14;2.90;99.90
44671;DHT22;48397;53.016;-2.260;2022-12-07T13:57:44;2.90;99.90
44671;DHT22;48397;53.016;-2.260;2022-12-07T14:00:26;2.80;99.90
44671;DHT22;48397;53.016;-2.260;2022-12-07T14:02:56;2.80;99.90
44671;DHT22;48397;53.016;-2.260;2022-12-07T14:05:34;2.80;99.90
44671;DHT22;48397;53.016;-2.260;2022-12-07T14:08:21;2.70;99.90
44671;DHT22;48397;53.016;-2.260;2022-12-07T14:13:36;2.70;99.90
44671;DHT22;48397;53.016;-2.260;2022-12-07T14:16:33;2.70;99.90
44671;DHT22;48397;53.016;-2.260;2022-12-07T14:19:05;2.70;99.90
44671;DHT22;48397;53.016;-2.260;2022-12-07T14:21:34;2.70;99.90
44671;DHT22;48397;53.016;-2.260;2022-12-07T14:24:16;2.70;99.90
44671;DHT22;48397;53.016;-2.260;2022-12-07T14:26:50;2.80;99.90
44671;DHT22;48397;53.016;-2.260;2022-12-07T14:29:37;2.80;99.90
44671;DHT22;48397;53.016;-2.260;2022-12-07T14:35:02;2.70;99.90
44671;DHT22;48397;53.016;-2.260;2022-12-07T14:39:59;2.60;99.90
44671;DHT22;48397;53.016;-2.260;2022-12-07T14:42:29;2.60;99.90
44671;DHT22;48397;53.016;-2.260;2022-12-07T14:44:58;2.60;99.90
44671;DHT22;48397;53.016;-2.260;2022-12-07T14:47:27;2.50;99.90
44671;DHT22;48397;53.016;-2.260;2022-12-07T14:50:17;2.60;99.90
44671;DHT22;48397;53.016;-2.260;2022-12-07T14:52:55;2.60;99.90
44671;DHT22;48397;53.016;-2.260;2022-12-07T14:55:44;2.60;99.90
44671;DHT22;48397;53.016;-2.260;2022-12-07T14:58:14;3.00;99.90
44671;DHT22;48397;53.016;-2.260;2022-12-07T15:00:42;2.60;99.90
44671;DHT22;48397;53.016;-2.260;2022-12-07T15:03:10;2.60;99.90
44671;DHT22;48397;53.016;-2.260;2022-12-07T15:05:41;2.60;99.90
44671;DHT22;48397;53.016;-2.260;2022-12-07T15:08:12;2.50;99.90
44671;DHT22;48397;53.016;-2.260;2022-12-07T15:13:10;2.40;99.90
44671;DHT22;48397;53.016;-2.260;2022-12-07T15:16:19;2.40;99.90
44671;DHT22;48397;53.016;-2.260;2022-12-07T15:18:49;2.30;99.90
44671;DHT22;48397;53.016;-2.260;2022-12-07T15:21:40;2.10;99.90
44671;DHT22;48397;53.016;-2.260;2022-12-07T15:24:10;-1.10;99.90
44671;DHT22;48397;53.016;-2.260;2022-12-07T15:26:39;1.90;99.90
44671;DHT22;48397;53.016;-2.260;2022-12-07T15:29:10;1.80;99.90
44671;DHT22;48397;53.016;-2.260;2022-12-07T15:31:44;1.60;99.90
44671;DHT22;48397;53.016;-2.260;2022-12-07T15:34:26;1.50;99.90
44671;DHT22;48397;53.016;-2.260;2022-12-07T15:37:08;1.40;99.90
44671;DHT22;48397;53.016;-2.260;2022-12-07T15:39:37;1.30;99.90
44671;DHT22;48397;53.016;-2.260;2022-12-07T15:42:06;1.30;99.90
44671;DHT22;48397;53.016;-2.260;2022-12-07T15:44:34;1.10;99.90
44671;DHT22;48397;53.016;-2.260;2022-12-07T15:47:21;0.90;99.90
44671;DHT22;48397;53.016;-2.260;2022-12-07T15:49:49;0.90;99.90
44671;DHT22;48397;53.016;-2.260;2022-12-07T15:52:18;0.60;99.90
44671;DHT22;48397;53.016;-2.260;2022-12-07T15:54:47;0.50;99.90
44671;DHT22;48397;53.016;-2.260;2022-12-07T15:57:17;0.40;99.90
44671;DHT22;48397;53.016;-2.260;2022-12-07T16:02:21;0.20;99.90
44671;DHT22;48397;53.016;-2.260;2022-12-07T16:04:51;0.10;99.90
44671;DHT22;48397;53.016;-2.260;2022-12-07T16:07:20;0.10;99.90
44671;DHT22;48397;53.016;-2.260;2022-12-07T16:09:48;0.00;99.90
44671;DHT22;48397;53.016;-2.260;2022-12-07T16:12:19;0.10;99.90
44671;DHT22;48397;53.016;-2.260;2022-12-07T16:14:48;-0.20;99.90
44671;DHT22;48397;53.016;-2.260;2022-12-07T16:19:45;-0.10;99.90
44671;DHT22;48397;53.016;-2.260;2022-12-07T16:22:13;-0.10;99.90
44671;DHT22;48397;53.016;-2.260;2022-12-07T16:24:42;-0.20;99.90
44671;DHT22;48397;53.016;-2.260;2022-12-07T16:29:38;-0.20;99.90
44671;DHT22;48397;53.016;-2.260;2022-12-07T16:32:06;-0.10;99.90
44671;DHT22;48397;53.016;-2.260;2022-12-07T16:34:34;-0.10;99.90
44671;DHT22;48397;53.016;-2.260;2022-12-07T16:37:02;-0.10;99.90
44671;DHT22;48397;53.016;-2.260;2022-12-07T16:39:33;-0.10;99.90
44671;DHT22;48397;53.016;-2.260;2022-12-07T16:44:30;-0.10;99.90
44671;DHT22;48397;53.016;-2.260;2022-12-07T16:47:00;-0.20;99.90
44671;DHT22;48397;53.016;-2.260;2022-12-07T16:49:29;-0.20;99.90
44671;DHT22;48397;53.016;-2.260;2022-12-07T16:54:47;-0.40;99.90
44671;DHT22;48397;53.016;-2.260;2022-12-07T16:57:16;-0.50;99.90
44671;DHT22;48397;53.016;-2.260;2022-12-07T16:59:51;-0.70;99.90
44671;DHT22;48397;53.016;-2.260;2022-12-07T17:02:19;-0.80;99.90
44671;DHT22;48397;53.016;-2.260;2022-12-07T17:04:47;-0.90;99.90
44671;DHT22;48397;53.016;-2.260;2022-12-07T17:07:16;-0.90;99.90
44671;DHT22;48397;53.016;-2.260;2022-12-07T17:09:44;-1.00;99.90
44671;DHT22;48397;53.016;-2.260;2022-12-07T17:12:12;-1.10;99.90
44671;DHT22;48397;53.016;-2.260;2022-12-07T17:14:40;0.20;99.90
44671;DHT22;48397;53.016;-2.260;2022-12-07T17:17:29;-1.20;99.90
44671;DHT22;48397;53.016;-2.260;2022-12-07T17:19:57;-1.20;99.90
44671;DHT22;48397;53.016;-2.260;2022-12-07T17:22:24;-1.20;99.90
44671;DHT22;48397;53.016;-2.260;2022-12-07T17:24:53;-1.30;99.90
44671;DHT22;48397;53.016;-2.260;2022-12-07T17:27:21;-1.30;99.90
44671;DHT22;48397;53.016;-2.260;2022-12-07T17:29:49;-1.20;99.90
44671;DHT22;48397;53.016;-2.260;2022-12-07T17:32:17;-1.30;99.90
44671;DHT22;48397;53.016;-2.260;2022-12-07T17:34:47;-1.30;99.90
44671;DHT22;48397;53.016;-2.260;2022-12-07T17:37:15;-1.30;99.90
44671;DHT22;48397;53.016;-2.260;2022-12-07T17:39:43;-1.40;99.90
44671;DHT22;48397;53.016;-2.260;2022-12-07T17:42:10;-1.50;99.90
44671;DHT22;48397;53.016;-2.260;2022-12-07T17:45:07;-1.50;99.90
44671;DHT22;48397;53.016;-2.260;2022-12-07T17:47:37;-1.50;99.90
44671;DHT22;48397;53.016;-2.260;2022-12-07T17:50:07;-1.60;99.90
44671;DHT22;48397;53.016;-2.260;2022-12-07T17:52:39;-2.90;99.90
44671;DHT22;48397;53.016;-2.260;2022-12-07T17:55:25;-1.70;99.90
44671;DHT22;48397;53.016;-2.260;2022-12-07T17:57:53;-1.80;99.90
44671;DHT22;48397;53.016;-2.260;2022-12-07T18:00:22;-1.70;99.90
44671;DHT22;48397;53.016;-2.260;2022-12-07T18:05:18;-0.30;99.90
44671;DHT22;48397;53.016;-2.260;2022-12-07T18:13:51;-1.80;99.90
44671;DHT22;48397;53.016;-2.260;2022-12-07T18:16:24;-1.80;99.90
44671;DHT22;48397;53.016;-2.260;2022-12-07T18:19:01;-1.80;99.90
44671;DHT22;48397;53.016;-2.260;2022-12-07T18:21:30;-1.80;99.90
44671;DHT22;48397;53.016;-2.260;2022-12-07T18:24:00;-1.90;99.90
44671;DHT22;48397;53.016;-2.260;2022-12-07T18:26:32;-2.00;99.90
44671;DHT22;48397;53.016;-2.260;2022-12-07T18:29:00;-2.10;99.90
44671;DHT22;48397;53.016;-2.260;2022-12-07T18:31:33;-2.20;99.90
44671;DHT22;48397;53.016;-2.260;2022-12-07T18:34:10;-2.20;99.90
44671;DHT22;48397;53.016;-2.260;2022-12-07T18:36:43;-2.20;99.90
44671;DHT22;48397;53.016;-2.260;2022-12-07T18:39:16;-2.20;99.90
44671;DHT22;48397;53.016;-2.260;2022-12-07T18:41:45;-2.30;99.90
44671;DHT22;48397;53.016;-2.260;2022-12-07T18:44:13;-2.30;99.90
44671;DHT22;48397;53.016;-2.260;2022-12-07T18:46:41;-2.30;99.90
44671;DHT22;48397;53.016;-2.260;2022-12-07T18:49:11;-2.30;99.90
44671;DHT22;48397;53.016;-2.260;2022-12-07T18:51:40;-2.30;99.90
44671;DHT22;48397;53.016;-2.260;2022-12-07T18:54:08;-2.30;99.90
44671;DHT22;48397;53.016;-2.260;2022-12-07T18:56:36;-2.30;99.90
44671;DHT22;48397;53.016;-2.260;2022-12-07T18:59:04;-2.30;99.90